X  Zamknij Lotniskowe dane METAR     LYNI Nis Airport
Temperatura
-3°C Temperatura
-8°C Punkt rosy
69% Wilgotność



Wiatr
42 KM/H
26 MPH
12 M/S
23 KTS



320°
NW
Warunki bieżące

Lekkie śnieg Lekkie śnieg
Ciśnienie 1025.92 (hPa) - 30.3 (inHg)
Widoczność 6.2 (mil) - 10 (km)
Lotnisko
Kod lotniska LYNI

Położenie: Nis Airport
Odległość: 63 (km)

Metar:
LYNI 050730Z 32023G34KT 9999 -SN SCT027 BKN040 M03/M08 Q1026 NOSIG

Czas: 05-02-2023 08:30 CET